createdAt,value
2019-05-10T00:01:10.700Z,9.88
2019-05-10T00:02:36.630Z,9.75
2019-05-10T00:04:02.390Z,9.77
2019-05-10T00:05:28.646Z,9.73
2019-05-10T00:06:54.870Z,9.70
2019-05-10T00:08:21.036Z,9.85
2019-05-10T00:09:28.363Z,9.84
2019-05-10T00:10:35.541Z,9.86
2019-05-10T00:11:49.166Z,9.85
2019-05-10T00:13:07.249Z,9.77
2019-05-10T00:14:27.162Z,9.88
2019-05-10T00:15:35.786Z,9.95
2019-05-10T00:16:44.504Z,9.91
2019-05-10T00:17:54.231Z,9.93
2019-05-10T00:19:02.605Z,9.91
2019-05-10T00:20:11.098Z,9.84
2019-05-10T00:21:19.199Z,9.88
2019-05-10T00:22:27.619Z,9.86
2019-05-10T00:23:36.075Z,9.80
2019-05-10T00:24:44.243Z,9.70
2019-05-10T00:25:52.351Z,9.84
2019-05-10T00:27:00.371Z,9.88
2019-05-10T00:28:08.842Z,9.83
2019-05-10T00:29:17.243Z,9.77
2019-05-10T00:30:25.692Z,9.72
2019-05-10T00:31:33.622Z,9.67
2019-05-10T00:32:41.791Z,9.65
2019-05-10T00:33:49.796Z,9.71
2019-05-10T00:34:57.811Z,9.80
2019-05-10T00:36:05.884Z,9.85
2019-05-10T00:37:14.256Z,9.94
2019-05-10T00:38:22.249Z,9.90
2019-05-10T00:39:30.846Z,9.94
2019-05-10T00:40:38.984Z,10.02
2019-05-10T00:41:47.236Z,10.03
2019-05-10T00:42:55.149Z,9.95
2019-05-10T00:44:03.704Z,9.99
2019-05-10T00:45:11.905Z,10.03
2019-05-10T00:46:20.086Z,10.00
2019-05-10T00:47:28.127Z,9.95
2019-05-10T00:48:36.326Z,9.94
2019-05-10T00:49:44.672Z,10.01
2019-05-10T00:50:53.021Z,9.98
2019-05-10T00:52:01.197Z,10.00
2019-05-10T00:53:09.788Z,10.10
2019-05-10T00:54:17.924Z,10.25
2019-05-10T00:55:26.121Z,10.21
2019-05-10T00:56:34.132Z,10.21
2019-05-10T00:57:42.432Z,10.27
2019-05-10T00:58:50.650Z,10.27
2019-05-10T00:59:58.781Z,10.17
2019-05-10T01:01:07.053Z,10.14
2019-05-10T01:02:15.521Z,10.25
2019-05-10T01:03:23.689Z,10.27
2019-05-10T01:04:31.889Z,10.18
2019-05-10T01:05:40.039Z,10.23
2019-05-10T01:06:48.379Z,10.06
2019-05-10T01:07:56.163Z,10.04
2019-05-10T01:09:06.118Z,10.05
2019-05-10T01:10:14.467Z,10.08
2019-05-10T01:11:23.053Z,10.27
2019-05-10T01:12:31.048Z,10.24
2019-05-10T01:13:39.771Z,10.14
2019-05-10T01:14:47.610Z,10.17
2019-05-10T01:15:56.545Z,10.19
2019-05-10T01:17:05.018Z,10.26
2019-05-10T01:18:13.138Z,10.37
2019-05-10T01:19:20.997Z,10.39
2019-05-10T01:20:29.875Z,10.40
2019-05-10T01:21:38.006Z,10.36
2019-05-10T01:22:46.171Z,10.39
2019-05-10T01:23:54.217Z,10.45
2019-05-10T01:25:02.616Z,10.34
2019-05-10T01:26:10.838Z,10.21
2019-05-10T01:27:19.003Z,10.22
2019-05-10T01:28:27.217Z,10.32
2019-05-10T01:29:35.706Z,10.41
2019-05-10T01:30:44.032Z,10.47
2019-05-10T01:31:52.410Z,10.50
2019-05-10T01:33:00.881Z,10.46
2019-05-10T01:34:09.095Z,10.62
2019-05-10T01:35:17.296Z,10.71
2019-05-10T01:36:26.039Z,10.76
2019-05-10T01:37:34.253Z,10.70
2019-05-10T01:38:42.495Z,10.69
2019-05-10T01:39:50.548Z,10.62
2019-05-10T01:40:58.814Z,10.67
2019-05-10T01:42:07.507Z,10.66
2019-05-10T01:43:15.976Z,10.74
2019-05-10T01:44:24.130Z,10.72
2019-05-10T01:45:32.515Z,10.65
2019-05-10T01:46:40.752Z,10.57
2019-05-10T01:47:49.204Z,10.49
2019-05-10T01:48:57.456Z,10.51
2019-05-10T01:50:08.666Z,10.53
2019-05-10T01:51:17.128Z,10.62
2019-05-10T01:52:25.740Z,10.52
2019-05-10T01:53:33.947Z,10.60
2019-05-10T01:54:42.407Z,10.72
2019-05-10T01:55:52.819Z,10.77
2019-05-10T01:57:00.484Z,10.78
2019-05-10T01:58:08.929Z,10.76
2019-05-10T01:59:17.498Z,10.79
2019-05-10T02:00:26.162Z,10.73
2019-05-10T02:01:35.143Z,10.64
2019-05-10T02:02:43.318Z,10.58
2019-05-10T02:03:51.586Z,10.69
2019-05-10T02:04:59.819Z,10.77
2019-05-10T02:06:08.115Z,10.84
2019-05-10T02:07:16.220Z,10.77
2019-05-10T02:08:24.728Z,10.72
2019-05-10T02:09:33.567Z,10.72
2019-05-10T02:10:42.459Z,10.78
2019-05-10T02:11:50.657Z,10.80
2019-05-10T02:12:59.266Z,10.84
2019-05-10T02:14:07.682Z,10.87
2019-05-10T02:15:16.380Z,10.76
2019-05-10T02:16:24.693Z,10.68
2019-05-10T02:17:33.016Z,10.65
2019-05-10T02:18:41.485Z,10.56
2019-05-10T02:19:49.908Z,10.54
2019-05-10T02:20:58.210Z,10.52
2019-05-10T02:22:06.600Z,10.56
2019-05-10T02:23:14.780Z,10.59
2019-05-10T02:24:23.406Z,10.52
2019-05-10T02:25:31.414Z,10.63
2019-05-10T02:26:40.212Z,10.65
2019-05-10T02:27:48.351Z,10.68
2019-05-10T02:28:56.611Z,10.65
2019-05-10T02:30:05.835Z,10.70
2019-05-10T02:31:14.275Z,10.76
2019-05-10T02:32:22.991Z,10.78
2019-05-10T02:33:31.564Z,10.80
2019-05-10T02:34:39.870Z,10.74
2019-05-10T02:35:48.053Z,10.73
2019-05-10T02:36:56.174Z,10.65
2019-05-10T02:38:04.463Z,10.70
2019-05-10T02:39:12.413Z,10.78
2019-05-10T02:40:20.867Z,10.86
2019-05-10T02:41:28.945Z,10.76
2019-05-10T02:42:37.210Z,10.76
2019-05-10T02:43:45.482Z,10.80
2019-05-10T02:44:53.627Z,10.69
2019-05-10T02:46:01.878Z,10.69
2019-05-10T02:47:10.097Z,10.73
2019-05-10T02:48:18.356Z,10.55
2019-05-10T02:49:26.600Z,10.51
2019-05-10T02:50:34.578Z,10.61
2019-05-10T02:51:42.957Z,10.68
2019-05-10T02:52:51.367Z,10.62
2019-05-10T02:54:00.812Z,10.64
2019-05-10T02:55:09.606Z,10.65
2019-05-10T02:56:29.702Z,10.54
2019-05-10T02:57:28.917Z,10.60
2019-05-10T02:58:38.197Z,10.54
2019-05-10T02:59:47.217Z,10.54
2019-05-10T03:00:58.674Z,10.59
2019-05-10T03:02:08.064Z,10.64
2019-05-10T03:03:18.685Z,10.66
2019-05-10T03:04:28.859Z,10.70
2019-05-10T03:05:39.348Z,10.70
2019-05-10T03:06:50.422Z,10.66
2019-05-10T03:08:01.644Z,10.66
2019-05-10T03:09:09.948Z,10.65
2019-05-10T03:10:18.729Z,10.69
2019-05-10T03:11:31.300Z,10.71
2019-05-10T03:12:42.687Z,10.67
2019-05-10T03:13:52.684Z,10.66
2019-05-10T03:15:01.177Z,10.67
2019-05-10T03:16:09.323Z,10.62
2019-05-10T03:17:19.980Z,10.52
2019-05-10T03:18:31.596Z,10.54
2019-05-10T03:19:42.279Z,10.58
2019-05-10T03:20:52.564Z,10.56
2019-05-10T03:22:08.437Z,10.54
2019-05-10T03:23:17.608Z,10.48
2019-05-10T03:24:28.028Z,10.50
2019-05-10T03:25:35.621Z,10.55
2019-05-10T03:26:50.725Z,10.59
2019-05-10T03:27:56.520Z,10.58
2019-05-10T03:29:04.836Z,10.57
2019-05-10T03:30:13.604Z,10.60
2019-05-10T03:31:22.211Z,10.64
2019-05-10T03:32:30.469Z,10.69
2019-05-10T03:33:38.905Z,10.62
2019-05-10T03:34:47.406Z,10.59
2019-05-10T03:35:56.234Z,10.59
2019-05-10T03:37:04.125Z,10.61
2019-05-10T03:38:12.576Z,10.67
2019-05-10T03:39:20.639Z,10.61
2019-05-10T03:40:29.413Z,10.59
2019-05-10T03:41:37.899Z,10.63
2019-05-10T03:42:46.242Z,10.64
2019-05-10T03:43:54.289Z,10.54
2019-05-10T03:45:02.330Z,10.54
2019-05-10T03:46:10.679Z,10.56
2019-05-10T03:47:18.805Z,10.55
2019-05-10T03:48:26.575Z,10.57
2019-05-10T03:49:34.866Z,10.58
2019-05-10T03:50:43.101Z,10.55
2019-05-10T03:51:51.501Z,10.57
2019-05-10T03:52:59.465Z,10.57
2019-05-10T03:54:07.592Z,10.45
2019-05-10T03:55:16.035Z,10.47
2019-05-10T03:56:24.237Z,10.52
2019-05-10T03:57:32.171Z,10.52
2019-05-10T03:58:40.397Z,10.56
2019-05-10T03:59:48.451Z,10.58
2019-05-10T04:00:56.550Z,10.62
2019-05-10T04:02:04.679Z,10.60
2019-05-10T04:03:12.962Z,10.59
2019-05-10T04:04:21.027Z,10.61
2019-05-10T04:05:29.586Z,10.63
2019-05-10T04:06:37.597Z,10.63
2019-05-10T04:07:45.774Z,10.61
2019-05-10T04:08:53.617Z,10.56
2019-05-10T04:10:01.644Z,10.62
2019-05-10T04:11:09.865Z,10.67
2019-05-10T04:12:18.206Z,10.70
2019-05-10T04:13:26.364Z,10.71
2019-05-10T04:14:34.763Z,10.75
2019-05-10T04:15:42.823Z,10.81
2019-05-10T04:16:50.932Z,10.82
2019-05-10T04:17:59.509Z,10.84
2019-05-10T04:19:08.067Z,10.71
2019-05-10T04:20:16.171Z,10.68
2019-05-10T04:21:24.827Z,10.69
2019-05-10T04:22:33.222Z,10.71
2019-05-10T04:23:41.247Z,10.81
2019-05-10T04:24:49.383Z,10.76
2019-05-10T04:25:57.586Z,10.72
2019-05-10T04:27:05.653Z,10.78
2019-05-10T04:28:13.620Z,10.88
2019-05-10T04:29:21.813Z,10.90
2019-05-10T04:30:31.861Z,10.87
2019-05-10T04:31:39.702Z,10.94
2019-05-10T04:32:48.122Z,10.95
2019-05-10T04:33:56.312Z,10.93
2019-05-10T04:35:08.597Z,10.94
2019-05-10T04:36:16.738Z,10.97
2019-05-10T04:37:24.851Z,10.95
2019-05-10T04:38:32.894Z,10.87
2019-05-10T04:39:41.457Z,10.88
2019-05-10T04:40:49.519Z,10.95
2019-05-10T04:41:57.770Z,11.04
2019-05-10T04:43:06.114Z,11.08
2019-05-10T04:44:14.188Z,11.09
2019-05-10T04:45:22.307Z,11.08
2019-05-10T04:46:30.768Z,11.11
2019-05-10T04:47:39.375Z,11.18
2019-05-10T04:48:47.593Z,11.27
2019-05-10T04:49:56.058Z,11.32
2019-05-10T04:51:04.426Z,11.30
2019-05-10T04:52:12.397Z,11.36
2019-05-10T04:53:20.686Z,11.37
2019-05-10T04:54:28.710Z,11.38
2019-05-10T04:55:38.026Z,11.38
2019-05-10T04:56:46.031Z,11.45
2019-05-10T04:57:54.456Z,11.53
2019-05-10T04:59:02.642Z,11.44
2019-05-10T05:00:12.329Z,11.45
2019-05-10T05:01:20.389Z,11.35
2019-05-10T05:02:28.811Z,11.44
2019-05-10T05:03:37.056Z,11.54
2019-05-10T05:04:45.227Z,11.52
2019-05-10T05:05:53.199Z,11.53
2019-05-10T05:07:01.431Z,11.57
2019-05-10T05:08:09.484Z,11.53
2019-05-10T05:09:17.542Z,11.41
2019-05-10T05:10:27.085Z,11.46
2019-05-10T05:11:35.466Z,11.54
2019-05-10T05:12:43.526Z,11.59
2019-05-10T05:13:52.124Z,11.45
2019-05-10T05:15:00.625Z,11.42
2019-05-10T05:16:09.015Z,11.37
2019-05-10T05:17:17.034Z,11.33
2019-05-10T05:18:25.321Z,11.31
2019-05-10T05:19:33.398Z,11.44
2019-05-10T05:20:41.388Z,11.47
2019-05-10T05:21:50.414Z,11.43
2019-05-10T05:22:58.701Z,11.33
2019-05-10T05:24:07.025Z,11.38
2019-05-10T05:25:15.451Z,11.47
2019-05-10T05:26:23.549Z,11.53
2019-05-10T05:27:32.333Z,11.51
2019-05-10T05:28:40.599Z,11.30
2019-05-10T05:29:50.214Z,11.36
2019-05-10T05:30:58.932Z,11.40
2019-05-10T05:32:07.905Z,11.54
2019-05-10T05:33:16.630Z,11.60
2019-05-10T05:34:25.630Z,11.56
2019-05-10T05:35:33.772Z,11.57
2019-05-10T05:36:42.467Z,11.59
2019-05-10T05:37:50.442Z,11.63
2019-05-10T05:38:59.027Z,11.64
2019-05-10T05:40:10.807Z,11.62
2019-05-10T05:41:19.449Z,11.57
2019-05-10T05:42:29.314Z,11.42
2019-05-10T05:43:45.681Z,11.45
2019-05-10T05:44:48.004Z,11.40
2019-05-10T05:45:56.617Z,11.47
2019-05-10T05:47:05.045Z,11.45
2019-05-10T05:48:16.044Z,11.59
2019-05-10T05:49:23.400Z,11.65
2019-05-10T05:50:32.610Z,11.72
2019-05-10T05:51:41.149Z,11.73
2019-05-10T05:52:49.860Z,11.78
2019-05-10T05:53:57.762Z,11.80
2019-05-10T05:55:08.755Z,11.73
2019-05-10T05:56:17.069Z,11.77
2019-05-10T05:57:27.602Z,11.83
2019-05-10T05:58:37.946Z,11.91
2019-05-10T05:59:49.066Z,11.94
2019-05-10T06:00:58.065Z,12.00
2019-05-10T06:02:09.050Z,12.01
2019-05-10T06:03:27.041Z,11.91
2019-05-10T06:04:27.029Z,11.80
2019-05-10T06:05:37.305Z,11.82
2019-05-10T06:06:45.635Z,11.96
2019-05-10T06:07:53.846Z,11.91
2019-05-10T06:09:02.889Z,11.93
2019-05-10T06:10:16.995Z,12.01
2019-05-10T06:11:21.694Z,12.17
2019-05-10T06:12:30.271Z,12.30
2019-05-10T06:13:38.905Z,12.43
2019-05-10T06:14:49.757Z,12.35
2019-05-10T06:15:59.999Z,12.32
2019-05-10T06:17:07.429Z,12.34
2019-05-10T06:18:16.089Z,12.33
2019-05-10T06:19:29.480Z,12.39
2019-05-10T06:20:38.167Z,12.52
2019-05-10T06:21:44.682Z,12.48
2019-05-10T06:23:05.673Z,12.42
2019-05-10T06:24:07.355Z,12.40
2019-05-10T06:25:13.554Z,12.49
2019-05-10T06:26:28.165Z,12.52
2019-05-10T06:27:35.405Z,12.62
2019-05-10T06:28:58.211Z,12.75
2019-05-10T06:29:52.926Z,12.90
2019-05-10T06:31:01.156Z,12.87
2019-05-10T06:32:09.752Z,12.97
2019-05-10T06:33:17.673Z,12.84
2019-05-10T06:34:26.032Z,12.88
2019-05-10T06:35:34.656Z,12.83
2019-05-10T06:36:43.315Z,12.80
2019-05-10T06:37:51.454Z,12.59
2019-05-10T06:38:59.921Z,12.56
2019-05-10T06:40:09.577Z,12.64
2019-05-10T06:41:19.230Z,12.60
2019-05-10T06:42:28.782Z,12.71
2019-05-10T06:43:37.575Z,12.84
2019-05-10T06:44:45.526Z,12.99
2019-05-10T06:45:54.076Z,13.13
2019-05-10T06:47:07.591Z,13.12
2019-05-10T06:48:12.403Z,12.95
2019-05-10T06:49:20.495Z,13.08
2019-05-10T06:50:31.658Z,13.08
2019-05-10T06:51:43.058Z,13.06
2019-05-10T06:52:51.982Z,13.09
2019-05-10T06:53:58.931Z,13.17
2019-05-10T06:55:09.145Z,13.21
2019-05-10T06:56:17.449Z,13.22
2019-05-10T06:57:26.044Z,13.38
2019-05-10T06:58:36.334Z,13.50
2019-05-10T06:59:44.472Z,13.59
2019-05-10T07:00:52.908Z,13.61
2019-05-10T07:02:01.415Z,13.64
2019-05-10T07:03:09.836Z,13.74
2019-05-10T07:04:18.328Z,13.67
2019-05-10T07:05:26.395Z,13.62
2019-05-10T07:06:34.779Z,13.55
2019-05-10T07:07:45.237Z,13.48
2019-05-10T07:08:57.859Z,13.46
2019-05-10T07:10:12.214Z,13.38
2019-05-10T07:11:13.310Z,13.43
2019-05-10T07:12:21.663Z,13.50
2019-05-10T07:13:30.227Z,13.57
2019-05-10T07:14:45.658Z,13.68
2019-05-10T07:15:48.661Z,13.88
2019-05-10T07:17:02.700Z,13.92
2019-05-10T07:18:06.896Z,14.06
2019-05-10T07:19:15.251Z,14.20
2019-05-10T07:20:29.291Z,14.35
2019-05-10T07:21:33.612Z,14.44
2019-05-10T07:22:42.177Z,14.35
2019-05-10T07:23:50.197Z,14.34
2019-05-10T07:25:04.515Z,14.44
2019-05-10T07:26:09.922Z,14.51
2019-05-10T07:27:18.540Z,14.47
2019-05-10T07:28:26.641Z,14.26
2019-05-10T07:29:42.251Z,14.19
2019-05-10T07:30:44.782Z,14.16
2019-05-10T07:31:53.184Z,14.32
2019-05-10T07:33:02.110Z,14.45
2019-05-10T07:34:15.577Z,14.60
2019-05-10T07:35:21.008Z,14.70
2019-05-10T07:36:30.807Z,14.80
2019-05-10T07:37:39.129Z,14.69
2019-05-10T07:38:47.916Z,14.67
2019-05-10T07:39:56.000Z,14.59
2019-05-10T07:41:04.437Z,14.80
2019-05-10T07:42:12.507Z,14.94
2019-05-10T07:43:26.628Z,14.96
2019-05-10T07:44:30.927Z,14.89
2019-05-10T07:45:39.597Z,14.90
2019-05-10T07:46:54.296Z,14.77
2019-05-10T07:48:02.286Z,14.69
2019-05-10T07:49:08.573Z,14.77
2019-05-10T07:50:17.479Z,14.68
2019-05-10T07:51:28.641Z,14.77
2019-05-10T07:52:36.325Z,14.76
2019-05-10T07:53:45.308Z,14.93
2019-05-10T07:54:53.574Z,14.95
2019-05-10T07:56:06.105Z,15.13
2019-05-10T07:57:11.645Z,15.07
2019-05-10T07:58:19.815Z,15.11
2019-05-10T07:59:33.893Z,15.21
2019-05-10T08:00:44.383Z,15.25
2019-05-10T08:01:49.325Z,15.28
2019-05-10T08:03:07.486Z,15.42
2019-05-10T08:04:08.986Z,15.68
2019-05-10T08:05:18.441Z,15.88
2019-05-10T08:06:33.846Z,15.69
2019-05-10T08:07:38.709Z,15.68
2019-05-10T08:08:49.456Z,15.54
2019-05-10T08:09:56.642Z,15.24
2019-05-10T08:11:05.020Z,15.28
2019-05-10T08:12:13.221Z,15.08
2019-05-10T08:13:25.155Z,15.18
2019-05-10T08:14:31.857Z,15.34
2019-05-10T08:15:40.263Z,15.34
2019-05-10T08:16:49.805Z,15.36
2019-05-10T08:17:58.607Z,15.49
2019-05-10T08:19:07.153Z,15.53
2019-05-10T08:20:28.140Z,15.51
2019-05-10T08:21:26.417Z,15.32
2019-05-10T08:22:41.281Z,15.46
2019-05-10T08:23:44.920Z,15.60
2019-05-10T08:24:56.313Z,15.79
2019-05-10T08:26:04.697Z,15.93
2019-05-10T08:27:14.847Z,16.10
2019-05-10T08:28:27.877Z,16.04
2019-05-10T08:29:33.783Z,15.56
2019-05-10T08:30:51.908Z,15.35
2019-05-10T08:31:56.151Z,15.45
2019-05-10T08:33:09.361Z,15.49
2019-05-10T08:34:14.603Z,15.46
2019-05-10T08:35:22.816Z,15.39
2019-05-10T08:36:32.216Z,15.55
2019-05-10T08:37:43.311Z,15.69
2019-05-10T08:39:03.113Z,15.84
2019-05-10T08:40:03.167Z,15.74
2019-05-10T08:41:14.714Z,15.78
2019-05-10T08:42:40.110Z,15.86
2019-05-10T08:43:39.038Z,15.85
2019-05-10T08:44:42.731Z,15.64
2019-05-10T08:45:52.444Z,15.60
2019-05-10T08:47:02.309Z,15.54
2019-05-10T08:48:12.761Z,15.65
2019-05-10T08:49:25.664Z,15.98
2019-05-10T08:50:47.843Z,16.31
2019-05-10T08:51:47.745Z,16.31
2019-05-10T08:52:56.317Z,16.18
2019-05-10T08:54:01.775Z,16.14
2019-05-10T08:55:12.299Z,16.39
2019-05-10T08:56:21.656Z,16.33
2019-05-10T08:57:36.868Z,16.04
2019-05-10T08:58:42.231Z,16.07
2019-05-10T08:59:56.101Z,16.18
2019-05-10T09:01:12.158Z,16.33
2019-05-10T09:02:10.022Z,16.48
2019-05-10T09:03:18.828Z,16.66
2019-05-10T09:04:33.494Z,16.55
2019-05-10T09:05:39.889Z,16.56
2019-05-10T09:06:52.508Z,16.84
2019-05-10T09:07:57.355Z,16.69
2019-05-10T09:09:08.661Z,16.74
2019-05-10T09:10:17.048Z,17.03
2019-05-10T09:11:25.484Z,17.32
2019-05-10T09:12:34.071Z,17.50
2019-05-10T09:13:46.034Z,17.46
2019-05-10T09:14:57.622Z,17.77
2019-05-10T09:16:04.394Z,17.77
2019-05-10T09:17:17.157Z,17.39
2019-05-10T09:18:23.462Z,17.16
2019-05-10T09:19:39.607Z,17.36
2019-05-10T09:20:42.294Z,17.49
2019-05-10T09:21:54.782Z,17.37
2019-05-10T09:23:02.421Z,17.66
2019-05-10T09:24:12.846Z,17.51
2019-05-10T09:25:29.273Z,17.47
2019-05-10T09:26:32.192Z,17.64
2019-05-10T09:27:43.250Z,17.50
2019-05-10T09:28:55.518Z,17.28
2019-05-10T09:30:02.961Z,17.37
2019-05-10T09:31:18.756Z,17.47
2019-05-10T09:32:28.585Z,17.43
2019-05-10T09:33:32.013Z,17.50
2019-05-10T09:34:42.652Z,17.37
2019-05-10T09:35:54.319Z,17.60
2019-05-10T09:37:02.776Z,17.83
2019-05-10T09:38:12.284Z,17.85
2019-05-10T09:39:24.213Z,17.88
2019-05-10T09:40:32.538Z,17.70
2019-05-10T09:41:42.180Z,17.62
2019-05-10T09:42:52.164Z,17.94
2019-05-10T09:44:02.848Z,17.80
2019-05-10T09:45:12.856Z,17.76
2019-05-10T09:46:22.907Z,17.74
2019-05-10T09:47:32.863Z,17.60
2019-05-10T09:48:44.681Z,17.48
2019-05-10T09:49:56.649Z,17.62
2019-05-10T09:51:01.615Z,17.73
2019-05-10T09:52:12.622Z,17.87
2019-05-10T09:53:25.684Z,18.72
2019-05-10T09:54:33.458Z,19.43
2019-05-10T09:55:45.629Z,19.97
2019-05-10T09:56:52.320Z,19.91
2019-05-10T09:58:02.220Z,19.95
2019-05-10T09:59:10.327Z,19.39
2019-05-10T10:00:21.854Z,19.07
2019-05-10T10:01:29.927Z,18.43
2019-05-10T10:02:40.671Z,18.44
2019-05-10T10:03:48.453Z,18.76
2019-05-10T10:04:58.945Z,19.51
2019-05-10T10:06:10.229Z,19.71
2019-05-10T10:07:18.938Z,20.42
2019-05-10T10:08:28.288Z,20.95
2019-05-10T10:09:44.497Z,20.62
2019-05-10T10:10:48.296Z,21.48
2019-05-10T10:12:01.691Z,21.21
2019-05-10T10:13:13.169Z,22.13
2019-05-10T10:14:17.941Z,22.29
2019-05-10T10:15:33.580Z,21.89
2019-05-10T10:16:37.235Z,21.95
2019-05-10T10:17:45.251Z,22.80
2019-05-10T10:18:54.807Z,23.44
2019-05-10T10:20:03.023Z,23.59
2019-05-10T10:21:13.323Z,23.81
2019-05-10T10:22:21.635Z,24.61
2019-05-10T10:23:34.548Z,23.36
2019-05-10T10:24:41.085Z,23.08
2019-05-10T10:25:49.756Z,22.93
2019-05-10T10:26:58.185Z,23.28
2019-05-10T10:28:10.396Z,24.71
2019-05-10T10:29:17.347Z,25.38
2019-05-10T10:30:27.595Z,26.43
2019-05-10T10:31:46.486Z,26.72
2019-05-10T10:32:47.704Z,27.25
2019-05-10T10:34:02.668Z,28.03
2019-05-10T10:35:07.860Z,28.34
2019-05-10T10:36:16.518Z,28.55
2019-05-10T10:37:29.080Z,29.02
2019-05-10T10:38:37.057Z,28.73
2019-05-10T10:39:47.525Z,25.34
2019-05-10T10:40:54.776Z,26.19
2019-05-10T10:42:08.962Z,27.69
2019-05-10T10:43:13.372Z,29.12
2019-05-10T10:44:22.306Z,28.60
2019-05-10T10:45:33.008Z,28.98
2019-05-10T10:46:42.270Z,30.14
2019-05-10T10:47:52.805Z,30.82
2019-05-10T10:49:01.784Z,31.34
2019-05-10T10:50:13.584Z,31.30
2019-05-10T10:51:26.467Z,29.72
2019-05-10T10:52:32.201Z,29.10
2019-05-10T10:53:40.761Z,29.53
2019-05-10T10:54:49.033Z,30.15
2019-05-10T10:56:03.605Z,29.22
2019-05-10T10:57:08.129Z,28.57
2019-05-10T10:58:18.495Z,26.87
2019-05-10T10:59:27.018Z,24.50
2019-05-10T11:00:38.765Z,25.59
2019-05-10T11:01:52.079Z,24.21
2019-05-10T11:02:57.418Z,25.52
2019-05-10T11:04:08.050Z,26.56
2019-05-10T11:05:16.132Z,26.69
2019-05-10T11:06:25.438Z,28.16
2019-05-10T11:07:36.051Z,29.33
2019-05-10T11:08:43.265Z,29.35
2019-05-10T11:09:53.811Z,27.94
2019-05-10T11:11:01.539Z,29.22
2019-05-10T11:12:14.749Z,29.65
2019-05-10T11:13:39.911Z,30.85
2019-05-10T11:14:31.962Z,31.02
2019-05-10T11:15:42.027Z,30.69
2019-05-10T11:16:52.967Z,30.90
2019-05-10T11:18:00.551Z,30.74
2019-05-10T11:19:11.454Z,31.66
2019-05-10T11:20:18.723Z,31.68
2019-05-10T11:21:28.630Z,31.79
2019-05-10T11:22:42.060Z,29.15
2019-05-10T11:23:47.088Z,28.54
2019-05-10T11:25:03.151Z,29.03
2019-05-10T11:26:05.715Z,29.47
2019-05-10T11:27:17.138Z,29.08
2019-05-10T11:28:23.961Z,29.94
2019-05-10T11:29:32.363Z,30.70
2019-05-10T11:30:40.773Z,29.78
2019-05-10T11:32:09.290Z,29.57
2019-05-10T11:33:00.500Z,30.85
2019-05-10T11:34:08.490Z,31.33
2019-05-10T11:35:24.008Z,31.72
2019-05-10T11:36:28.461Z,32.78
2019-05-10T11:37:36.841Z,31.86
2019-05-10T11:38:47.171Z,31.70
2019-05-10T11:39:55.187Z,32.44
2019-05-10T11:41:07.105Z,32.22
2019-05-10T11:42:15.536Z,31.83
2019-05-10T11:43:26.909Z,30.88
2019-05-10T11:44:33.432Z,29.55
2019-05-10T11:45:44.095Z,28.23
2019-05-10T11:46:51.771Z,27.46
2019-05-10T11:48:02.088Z,27.11
2019-05-10T11:49:10.677Z,29.02
2019-05-10T11:50:28.897Z,29.93
2019-05-10T11:51:31.580Z,29.16
2019-05-10T11:52:40.762Z,27.66
2019-05-10T11:53:55.405Z,25.66
2019-05-10T11:55:01.220Z,26.26
2019-05-10T11:56:14.027Z,27.44
2019-05-10T11:57:21.772Z,27.83
2019-05-10T11:58:31.090Z,26.52
2019-05-10T11:59:41.466Z,25.15
2019-05-10T12:00:55.702Z,24.56
2019-05-10T12:02:00.504Z,24.18
2019-05-10T12:03:14.880Z,23.61
2019-05-10T12:04:24.025Z,23.00
2019-05-10T12:05:31.783Z,22.68
2019-05-10T12:06:41.144Z,22.51
2019-05-10T12:07:51.778Z,22.91
2019-05-10T12:09:02.098Z,22.82
2019-05-10T12:10:17.947Z,22.38
2019-05-10T12:11:29.330Z,22.63
2019-05-10T12:12:50.285Z,22.79
2019-05-10T12:13:39.612Z,22.79
2019-05-10T12:14:48.133Z,22.77
2019-05-10T12:15:56.083Z,22.97
2019-05-10T12:17:06.377Z,22.63
2019-05-10T12:18:15.196Z,22.35
2019-05-10T12:19:23.725Z,22.54
2019-05-10T12:20:54.067Z,22.68
2019-05-10T12:21:41.808Z,22.70
2019-05-10T12:22:51.750Z,22.80
2019-05-10T12:24:10.588Z,22.81
2019-05-10T12:25:34.981Z,22.39
2019-05-10T12:27:41.845Z,23.38
2019-05-10T12:28:40.760Z,23.85
2019-05-10T12:29:55.920Z,24.58
2019-05-10T12:31:01.412Z,24.27
2019-05-10T12:32:10.412Z,24.27
2019-05-10T12:33:25.305Z,24.49
2019-05-10T12:34:31.066Z,24.84
2019-05-10T12:35:44.536Z,25.46
2019-05-10T12:36:48.443Z,25.83
2019-05-10T12:37:56.767Z,25.50
2019-05-10T12:39:06.445Z,25.47
2019-05-10T12:40:15.500Z,25.24
2019-05-10T12:41:23.560Z,25.02
2019-05-10T12:42:32.440Z,25.20
2019-05-10T12:43:43.401Z,26.47
2019-05-10T12:44:51.602Z,27.40
2019-05-10T12:46:01.103Z,28.75
2019-05-10T12:47:11.334Z,29.71
2019-05-10T12:48:23.165Z,29.69
2019-05-10T12:49:31.459Z,29.76
2019-05-10T12:50:38.839Z,29.79
2019-05-10T12:51:47.399Z,30.31
2019-05-10T12:53:03.139Z,31.21
2019-05-10T12:54:05.826Z,32.03
2019-05-10T12:55:14.109Z,31.93
2019-05-10T12:56:22.567Z,31.40
2019-05-10T12:57:30.747Z,30.14
2019-05-10T12:58:39.097Z,28.28
2019-05-10T12:59:47.007Z,27.37
2019-05-10T13:00:58.847Z,26.51
2019-05-10T13:02:10.890Z,26.45
2019-05-10T13:03:18.999Z,26.33
2019-05-10T13:04:39.644Z,27.62
2019-05-10T13:05:51.489Z,27.72
2019-05-10T13:06:45.953Z,28.68
2019-05-10T13:07:54.360Z,29.50
2019-05-10T13:09:02.741Z,30.52
2019-05-10T13:10:12.764Z,30.24
2019-05-10T13:11:25.457Z,29.64
2019-05-10T13:12:31.168Z,28.51
2019-05-10T13:13:39.700Z,28.22
2019-05-10T13:14:52.441Z,29.28
2019-05-10T13:15:58.426Z,30.59
2019-05-10T13:17:09.878Z,31.11
2019-05-10T13:18:16.449Z,31.33
2019-05-10T13:19:25.408Z,31.52
2019-05-10T13:20:36.584Z,32.31
2019-05-10T13:21:45.776Z,32.29
2019-05-10T13:22:53.948Z,31.52
2019-05-10T13:24:02.434Z,30.60
2019-05-10T13:25:10.967Z,29.51
2019-05-10T13:26:19.827Z,25.92
2019-05-10T13:27:27.883Z,24.88
2019-05-10T13:28:36.441Z,24.96
2019-05-10T13:29:47.006Z,25.21
2019-05-10T13:30:59.780Z,25.89
2019-05-10T13:32:05.040Z,26.43
2019-05-10T13:33:27.737Z,26.82
2019-05-10T13:34:24.432Z,25.27
2019-05-10T13:35:33.316Z,23.36
2019-05-10T13:36:41.311Z,22.28
2019-05-10T13:37:49.726Z,22.05
2019-05-10T13:38:57.618Z,22.34
2019-05-10T13:40:08.507Z,22.34
2019-05-10T13:41:17.785Z,22.95
2019-05-10T13:42:27.314Z,23.39
2019-05-10T13:43:35.606Z,23.31
2019-05-10T13:44:44.598Z,23.92
2019-05-10T13:45:52.935Z,23.14
2019-05-10T13:47:04.934Z,23.16
2019-05-10T13:48:12.408Z,21.95
2019-05-10T13:49:20.884Z,21.39
2019-05-10T13:50:31.492Z,20.96
2019-05-10T13:51:39.883Z,20.37
2019-05-10T13:52:47.876Z,20.41
2019-05-10T13:53:59.039Z,20.73
2019-05-10T13:55:09.605Z,20.61
2019-05-10T13:56:17.900Z,20.21
2019-05-10T13:57:26.305Z,20.49
2019-05-10T13:58:35.240Z,20.39
2019-05-10T13:59:43.409Z,20.41
2019-05-10T14:00:52.142Z,20.41
2019-05-10T14:02:00.352Z,20.16
2019-05-10T14:03:11.304Z,19.86
2019-05-10T14:04:23.051Z,20.21
2019-05-10T14:05:30.346Z,20.72
2019-05-10T14:06:38.648Z,21.09
2019-05-10T14:07:52.286Z,21.51
2019-05-10T14:08:57.093Z,21.65
2019-05-10T14:10:07.034Z,21.76
2019-05-10T14:11:15.042Z,21.98
2019-05-10T14:12:25.743Z,21.67
2019-05-10T14:13:35.719Z,21.67
2019-05-10T14:14:46.339Z,21.37
2019-05-10T14:15:55.152Z,20.56
2019-05-10T14:17:06.815Z,20.39
2019-05-10T14:18:15.295Z,20.28
2019-05-10T14:19:25.558Z,20.35
2019-05-10T14:20:34.317Z,20.44
2019-05-10T14:21:42.847Z,20.03
2019-05-10T14:22:55.702Z,19.78
2019-05-10T14:24:01.146Z,19.66
2019-05-10T14:25:10.000Z,19.37
2019-05-10T14:26:19.046Z,19.39
2019-05-10T14:27:29.862Z,19.15
2019-05-10T14:28:37.876Z,19.15
2019-05-10T14:29:46.181Z,19.24
2019-05-10T14:30:57.460Z,18.83
2019-05-10T14:32:04.770Z,18.90
2019-05-10T14:33:14.818Z,18.83
2019-05-10T14:34:23.643Z,18.77
2019-05-10T14:35:32.558Z,18.46
2019-05-10T14:36:43.389Z,18.26
2019-05-10T14:37:51.420Z,18.03
2019-05-10T14:38:59.779Z,18.04
2019-05-10T14:40:10.047Z,17.89
2019-05-10T14:41:18.541Z,18.20
2019-05-10T14:42:31.002Z,18.27
2019-05-10T14:43:37.308Z,18.33
2019-05-10T14:44:46.100Z,18.12
2019-05-10T14:45:54.350Z,17.77
2019-05-10T14:47:03.228Z,17.86
2019-05-10T14:48:11.916Z,17.69
2019-05-10T14:49:20.923Z,17.58
2019-05-10T14:50:28.975Z,17.77
2019-05-10T14:51:49.792Z,17.54
2019-05-10T14:52:48.417Z,17.77
2019-05-10T14:54:06.002Z,17.92